Flight Track Log - Related Links

Times and Time Zones

All times are in EDT time to prevent confusion due to time zone crossing. See the SKW5162 flight status page for this flight to view local times or setup timezone preferences in your user account.

Time Position Orientation Groundspeed Altitude Reporting Facility
EDT Latitude Longitude Course Direction KTS MPH feet Rate Location/Type
Thu 10:53:48 PM 38.9667 -77.5333 North 185 213 2,300  Level Potomac TRACON
Thu 10:54:54 PM 39.0167 -77.5667 333° Northwest 252 290 4,300 2,300 Climbing Potomac TRACON
Thu 10:55:00 PM 39.2890 -77.4500 North  Level FlightAware Approximate
Thu 10:56:00 PM 39.4076 -77.4500 North  Level FlightAware Approximate
Thu 10:56:48 PM 39.1681 -77.5753 357° North 289 333 9,200  Level Washington Center
Thu 10:57:00 PM 39.5261 -77.4500 North  Level FlightAware Approximate
Thu 10:57:47 PM 39.2489 -77.5989 347° North 289 333 11,600  Level Washington Center
Thu 10:58:00 PM 39.6446 -77.4500 North  Level FlightAware Approximate
Thu 10:58:47 PM 39.3214 -77.6331 340° North 305 351 13,000  Level Washington Center
Thu 10:59:00 PM 39.7681 -77.4500 North  Level FlightAware Approximate
Thu 10:59:48 PM 39.4167 -77.6656 345° North 333 383 14,400  Level Washington Center
Thu 11:00:48 PM 39.5053 -77.6008 29° Northeast 329 379 16,400 1,388 Climbing Washington Center
Thu 11:01:49 PM 39.5983 -77.5117 36° Northeast 349 402 17,200 1,340 Climbing Washington Center
Thu 11:02:22 PM 39.6531 -77.4558 38° Northeast 350 403 18,500 1,915 Climbing New York Center
Thu 11:03:23 PM 39.7658 -77.4531 North 385 443 20,200 1,525 Climbing New York Center
Thu 11:04:24 PM 39.8764 -77.4500 North 385 443 21,600 1,438 Climbing New York Center
Thu 11:05:24 PM 39.9933 -77.4503 360° North 404 465 23,100 1,424 Climbing New York Center
Thu 11:06:22 PM 40.1122 -77.4481 North 411 473 24,400 1,361 Climbing New York Center
Thu 11:07:23 PM 40.2142 -77.4878 343° North 420 483 25,800 1,240 Climbing New York Center
Thu 11:08:23 PM 40.3264 -77.5314 343° North 425 489 26,900 1,213 Climbing New York Center
Thu 11:10:21 PM 40.5542 -77.6261 342° North 428 493 29,400 1,247 Climbing Cleveland Center
Thu 11:11:21 PM 40.6681 -77.6731 343° North 428 493 30,600 1,091 Climbing Cleveland Center
Thu 11:12:22 PM 40.7819 -77.7231 342° North 428 493 31,600 700 Climbing Cleveland Center
Thu 11:13:21 PM 40.8978 -77.7700 343° North 428 493 32,000 202 Climbing Cleveland Center
Thu 11:14:21 PM 41.0303 -77.8250 343° North 435 501 32,000  Level Cleveland Center
Thu 11:15:21 PM 41.1525 -77.8750 343° North 445 512 32,000  Level Cleveland Center
Thu 11:16:21 PM 41.2725 -77.9253 343° North 445 512 32,000  Level Cleveland Center
Thu 11:17:22 PM 41.3947 -77.9783 342° North 450 518 32,000  Level Cleveland Center
Thu 11:18:22 PM 41.5167 -78.0289 343° North 450 518 32,000  Level Cleveland Center
Thu 11:19:21 PM 41.6389 -78.0825 342° North 450 518 32,000  Level Cleveland Center
Thu 11:20:21 PM 41.7608 -78.1333 343° North 450 518 32,000  Level Cleveland Center
Thu 11:21:21 PM 41.8850 -78.1872 342° North 457 526 32,000  Level Cleveland Center
Thu 11:22:21 PM 42.0069 -78.2414 342° North 462 532 32,000  Level Cleveland Center
Thu 11:23:21 PM 42.1186 -78.2906 342° North 469 540 32,000  Level Cleveland Center
Thu 11:24:21 PM 42.2406 -78.3450 342° North 469 540 32,000  Level Cleveland Center
Thu 11:25:21 PM 42.3625 -78.3997 342° North 469 540 32,000 -450 Level Cleveland Center
Thu 11:26:21 PM 42.4844 -78.4519 342° North 464 534 31,100 -950 Descending Cleveland Center
Thu 11:27:21 PM 42.6103 -78.5069 342° North 469 540 30,100 -1,000 Descending Cleveland Center
Thu 11:28:21 PM 42.7281 -78.5594 342° North 464 534 29,100 -1,200 Descending Cleveland Center
Thu 11:29:21 PM 42.8289 -78.6017 343° North 422 486 27,700 -1,650 Descending Cleveland Center
Thu 11:30:21 PM 42.9256 -78.6494 340° North 388 447 25,800 -1,850 Descending Cleveland Center
Thu 11:31:21 PM 42.9856 -78.7497 309° West 346 398 24,000 -1,850 Descending Cleveland Center
Thu 11:32:21 PM 43.0411 -78.8506 307° West 331 381 22,100 -1,800 Descending Cleveland Center
Thu 11:33:21 PM 43.0906 -78.9458 305° West 325 374 20,400 -1,600 Descending Cleveland Center
Thu 11:34:21 PM 43.1419 -79.0439 306° West 320 368 18,900 -1,584 Descending Cleveland Center
Thu 11:35:26 PM 43.2000 -79.1333 312° West 310 357 17,100 -1,488 Descending Toronto Center
Thu 11:36:26 PM 43.2333 -79.2167 299° West 300 345 15,800 -1,350 Descending Toronto Center
Thu 11:37:26 PM 43.2833 -79.3167 305° West 290 334 14,400 -1,350 Descending Toronto Center
Thu 11:38:26 PM 43.3500 -79.3833 324° Northwest 290 334 13,100 -1,289 Descending Toronto Center
Thu 11:39:27 PM 43.4167 -79.4333 331° Northwest 290 334 11,800 -1,350 Descending Toronto Center
Thu 11:40:26 PM 43.5000 -79.4667 344° North 270 311 10,400 -1,361 Descending Toronto Center
Thu 11:41:26 PM 43.5667 -79.4667 360° North 260 299 9,100 -1,800 Descending Toronto Center
Thu 11:42:26 PM 43.6333 -79.4333 20° North 260 299 6,800 -2,250 Descending Toronto Center
Thu 11:43:26 PM 43.6833 -79.3833 36° Northeast 260 299 4,600 -1,550 Descending Toronto Center
Thu 11:44:26 PM 43.7333 -79.3500 26° Northeast 210 242 3,700 -900 Descending Toronto Center

Login

Don't have an account? Register now (free) for customized features, flight alerts, and more!